sensor_id;sensor_type;location;lat;lon;timestamp;pressure;altitude;pressure_sealevel;temperature;humidity
72359;BME280;60317;48.880;-0.862;2023-05-11T00:00:25;100512.31;;;20.88;48.80
72359;BME280;60317;48.880;-0.862;2023-05-11T00:02:52;100517.69;;;20.88;48.80
72359;BME280;60317;48.880;-0.862;2023-05-11T00:05:18;100521.09;;;20.90;48.74
72359;BME280;60317;48.880;-0.862;2023-05-11T00:07:45;100520.09;;;20.91;48.80
72359;BME280;60317;48.880;-0.862;2023-05-11T00:10:11;100515.13;;;20.87;48.78
72359;BME280;60317;48.880;-0.862;2023-05-11T00:12:38;100509.28;;;20.72;49.13
72359;BME280;60317;48.880;-0.862;2023-05-11T00:15:05;100518.75;;;20.76;49.03
72359;BME280;60317;48.880;-0.862;2023-05-11T00:17:33;100510.19;;;20.82;48.87
72359;BME280;60317;48.880;-0.862;2023-05-11T00:19:59;100517.09;;;20.85;48.72
72359;BME280;60317;48.880;-0.862;2023-05-11T00:22:26;100514.28;;;20.86;48.94
72359;BME280;60317;48.880;-0.862;2023-05-11T00:24:52;100515.00;;;20.88;48.90
72359;BME280;60317;48.880;-0.862;2023-05-11T00:27:19;100517.69;;;20.88;48.76
72359;BME280;60317;48.880;-0.862;2023-05-11T00:29:46;100514.88;;;20.90;48.70
72359;BME280;60317;48.880;-0.862;2023-05-11T00:32:12;100511.13;;;20.81;49.03
72359;BME280;60317;48.880;-0.862;2023-05-11T00:34:40;100508.16;;;20.75;49.05
72359;BME280;60317;48.880;-0.862;2023-05-11T00:37:06;100505.91;;;20.80;48.81
72359;BME280;60317;48.880;-0.862;2023-05-11T00:39:33;100508.19;;;20.84;48.55
72359;BME280;60317;48.880;-0.862;2023-05-11T00:41:59;100510.88;;;20.84;48.68
72359;BME280;60317;48.880;-0.862;2023-05-11T00:44:26;100503.53;;;20.86;48.38
72359;BME280;60317;48.880;-0.862;2023-05-11T00:46:52;100510.59;;;20.87;48.68
72359;BME280;60317;48.880;-0.862;2023-05-11T00:49:19;100509.63;;;20.88;48.62
72359;BME280;60317;48.880;-0.862;2023-05-11T00:51:47;100500.59;;;20.89;48.72
72359;BME280;60317;48.880;-0.862;2023-05-11T00:54:13;100496.44;;;20.76;49.05
72359;BME280;60317;48.880;-0.862;2023-05-11T00:56:40;100495.84;;;20.72;48.86
72359;BME280;60317;48.880;-0.862;2023-05-11T00:59:07;100495.44;;;20.77;48.71
72359;BME280;60317;48.880;-0.862;2023-05-11T01:01:33;100496.88;;;20.81;48.70
72359;BME280;60317;48.880;-0.862;2023-05-11T01:04:00;100487.84;;;20.82;48.67
72359;BME280;60317;48.880;-0.862;2023-05-11T01:06:33;100492.06;;;20.84;48.81
72359;BME280;60317;48.880;-0.862;2023-05-11T01:09:06;100485.72;;;20.85;48.62
72359;BME280;60317;48.880;-0.862;2023-05-11T01:11:41;100488.28;;;20.87;48.66
72359;BME280;60317;48.880;-0.862;2023-05-11T01:14:12;100485.59;;;20.87;48.57
72359;BME280;60317;48.880;-0.862;2023-05-11T01:16:43;100486.13;;;20.81;48.78
72359;BME280;60317;48.880;-0.862;2023-05-11T01:19:18;100483.41;;;20.71;49.00
72359;BME280;60317;48.880;-0.862;2023-05-11T01:21:49;100473.25;;;20.75;48.76
72359;BME280;60317;48.880;-0.862;2023-05-11T01:24:27;100487.97;;;20.80;48.58
72359;BME280;60317;48.880;-0.862;2023-05-11T01:27:09;100478.91;;;20.81;48.55
72359;BME280;60317;48.880;-0.862;2023-05-11T01:29:49;100488.53;;;20.84;48.73
72359;BME280;60317;48.880;-0.862;2023-05-11T01:32:24;100489.38;;;20.84;48.60
72359;BME280;60317;48.880;-0.862;2023-05-11T01:34:57;100487.44;;;20.86;48.55
72359;BME280;60317;48.880;-0.862;2023-05-11T01:37:26;100483.16;;;20.84;48.73
72359;BME280;60317;48.880;-0.862;2023-05-11T01:39:58;100488.78;;;20.71;48.93
72359;BME280;60317;48.880;-0.862;2023-05-11T01:42:29;100486.69;;;20.75;48.57
72359;BME280;60317;48.880;-0.862;2023-05-11T01:44:58;100481.88;;;20.78;48.51
72359;BME280;60317;48.880;-0.862;2023-05-11T01:47:28;100484.28;;;20.81;48.47
72359;BME280;60317;48.880;-0.862;2023-05-11T01:49:55;100488.69;;;20.82;48.43
72359;BME280;60317;48.880;-0.862;2023-05-11T01:52:24;100496.47;;;20.85;48.48
72359;BME280;60317;48.880;-0.862;2023-05-11T01:54:53;100487.44;;;20.86;48.40
72359;BME280;60317;48.880;-0.862;2023-05-11T01:57:20;100491.09;;;20.85;48.46
72359;BME280;60317;48.880;-0.862;2023-05-11T01:59:47;100491.31;;;20.72;48.75
72359;BME280;60317;48.880;-0.862;2023-05-11T02:02:17;100485.22;;;20.70;48.80
72359;BME280;60317;48.880;-0.862;2023-05-11T02:04:45;100484.84;;;20.75;48.67
72359;BME280;60317;48.880;-0.862;2023-05-11T02:07:13;100484.56;;;20.78;48.41
72359;BME280;60317;48.880;-0.862;2023-05-11T02:09:42;100484.56;;;20.78;48.44
72359;BME280;60317;48.880;-0.862;2023-05-11T02:12:10;100489.66;;;20.81;48.51
72359;BME280;60317;48.880;-0.862;2023-05-11T02:14:38;100484.00;;;20.84;48.53
72359;BME280;60317;48.880;-0.862;2023-05-11T02:17:07;100486.69;;;20.84;48.47
72359;BME280;60317;48.880;-0.862;2023-05-11T02:19:36;100490.22;;;20.85;48.56
72359;BME280;60317;48.880;-0.862;2023-05-11T02:22:06;100490.22;;;20.75;48.78
72359;BME280;60317;48.880;-0.862;2023-05-11T02:24:33;100499.06;;;20.66;48.74
72359;BME280;60317;48.880;-0.862;2023-05-11T02:27:00;100498.53;;;20.72;48.49
72359;BME280;60317;48.880;-0.862;2023-05-11T02:29:27;100500.13;;;20.75;48.51
72359;BME280;60317;48.880;-0.862;2023-05-11T02:31:56;100493.59;;;20.77;48.47
72359;BME280;60317;48.880;-0.862;2023-05-11T02:34:28;100495.31;;;20.78;48.35
72359;BME280;60317;48.880;-0.862;2023-05-11T02:36:57;100481.75;;;20.80;48.37
72359;BME280;60317;48.880;-0.862;2023-05-11T02:39:29;100481.59;;;20.81;48.44
72359;BME280;60317;48.880;-0.862;2023-05-11T02:41:59;100479.78;;;20.82;48.57
72359;BME280;60317;48.880;-0.862;2023-05-11T02:44:30;100487.78;;;20.72;48.63
72359;BME280;60317;48.880;-0.862;2023-05-11T02:46:59;100477.47;;;20.67;48.51
72359;BME280;60317;48.880;-0.862;2023-05-11T02:49:30;100478.88;;;20.71;48.36
72359;BME280;60317;48.880;-0.862;2023-05-11T02:51:58;100480.44;;;20.74;48.28
72359;BME280;60317;48.880;-0.862;2023-05-11T02:54:27;100486.53;;;20.76;48.33
72359;BME280;60317;48.880;-0.862;2023-05-11T02:56:55;100479.22;;;20.78;48.30
72359;BME280;60317;48.880;-0.862;2023-05-11T02:59:22;100481.75;;;20.80;48.30
72359;BME280;60317;48.880;-0.862;2023-05-11T03:01:49;100480.75;;;20.81;48.55
72359;BME280;60317;48.880;-0.862;2023-05-11T03:04:17;100479.06;;;20.80;48.38
72359;BME280;60317;48.880;-0.862;2023-05-11T03:06:43;100476.59;;;20.67;48.56
72359;BME280;60317;48.880;-0.862;2023-05-11T03:09:10;100475.88;;;20.65;48.66
72359;BME280;60317;48.880;-0.862;2023-05-11T03:11:38;100483.28;;;20.72;48.28
72359;BME280;60317;48.880;-0.862;2023-05-11T03:14:05;100487.53;;;20.75;48.44
72359;BME280;60317;48.880;-0.862;2023-05-11T03:16:32;100482.84;;;20.77;48.27
72359;BME280;60317;48.880;-0.862;2023-05-11T03:18:59;100485.53;;;20.77;48.33
72359;BME280;60317;48.880;-0.862;2023-05-11T03:21:27;100477.22;;;20.80;48.22
72359;BME280;60317;48.880;-0.862;2023-05-11T03:23:54;100475.38;;;20.81;48.32
72359;BME280;60317;48.880;-0.862;2023-05-11T03:26:22;100473.69;;;20.80;48.30
72359;BME280;60317;48.880;-0.862;2023-05-11T03:28:53;100472.53;;;20.72;48.50
72359;BME280;60317;48.880;-0.862;2023-05-11T03:31:20;100467.94;;;20.63;48.62
72359;BME280;60317;48.880;-0.862;2023-05-11T03:33:46;100471.22;;;20.67;48.35
72359;BME280;60317;48.880;-0.862;2023-05-11T03:36:13;100471.53;;;20.73;48.43
72359;BME280;60317;48.880;-0.862;2023-05-11T03:38:41;100469.69;;;20.74;48.09
72359;BME280;60317;48.880;-0.862;2023-05-11T03:41:13;100471.41;;;20.75;48.08
72359;BME280;60317;48.880;-0.862;2023-05-11T03:43:41;100465.78;;;20.78;47.99
72359;BME280;60317;48.880;-0.862;2023-05-11T03:46:12;100462.09;;;20.79;48.10
72359;BME280;60317;48.880;-0.862;2023-05-11T03:48:40;100464.78;;;20.79;48.15
72359;BME280;60317;48.880;-0.862;2023-05-11T03:51:08;100464.72;;;20.69;48.30
72359;BME280;60317;48.880;-0.862;2023-05-11T03:53:35;100464.56;;;20.61;48.48
72359;BME280;60317;48.880;-0.862;2023-05-11T03:56:02;100462.47;;;20.65;48.21
72359;BME280;60317;48.880;-0.862;2023-05-11T03:58:29;100470.00;;;20.71;48.07
72359;BME280;60317;48.880;-0.862;2023-05-11T04:00:56;100465.31;;;20.73;48.20
72359;BME280;60317;48.880;-0.862;2023-05-11T04:03:24;100461.63;;;20.74;48.07
72359;BME280;60317;48.880;-0.862;2023-05-11T04:05:51;100458.94;;;20.74;48.14
72359;BME280;60317;48.880;-0.862;2023-05-11T04:08:18;100459.69;;;20.76;48.17
72359;BME280;60317;48.880;-0.862;2023-05-11T04:10:44;100452.47;;;20.77;47.99
72359;BME280;60317;48.880;-0.862;2023-05-11T04:13:11;100456.00;;;20.77;48.06
72359;BME280;60317;48.880;-0.862;2023-05-11T04:15:37;100460.47;;;20.67;48.30
72359;BME280;60317;48.880;-0.862;2023-05-11T04:18:03;100451.97;;;20.62;48.36
72359;BME280;60317;48.880;-0.862;2023-05-11T04:20:31;100458.78;;;20.66;47.97
72359;BME280;60317;48.880;-0.862;2023-05-11T04:22:58;100465.72;;;20.68;47.91
72359;BME280;60317;48.880;-0.862;2023-05-11T04:25:24;100461.94;;;20.71;48.02
72359;BME280;60317;48.880;-0.862;2023-05-11T04:27:51;100457.41;;;20.71;47.93
72359;BME280;60317;48.880;-0.862;2023-05-11T04:30:18;100463.63;;;20.72;47.99
72359;BME280;60317;48.880;-0.862;2023-05-11T04:32:45;100456.25;;;20.74;47.89
72359;BME280;60317;48.880;-0.862;2023-05-11T04:35:11;100458.81;;;20.76;47.80
72359;BME280;60317;48.880;-0.862;2023-05-11T04:37:39;100460.34;;;20.68;48.16
72359;BME280;60317;48.880;-0.862;2023-05-11T04:40:06;100463.00;;;20.59;48.33
72359;BME280;60317;48.880;-0.862;2023-05-11T04:42:33;100459.03;;;20.63;48.14
72359;BME280;60317;48.880;-0.862;2023-05-11T04:44:59;100455.09;;;20.67;47.95
72359;BME280;60317;48.880;-0.862;2023-05-11T04:47:26;100461.19;;;20.69;47.95
72359;BME280;60317;48.880;-0.862;2023-05-11T04:49:53;100463.75;;;20.70;47.70
72359;BME280;60317;48.880;-0.862;2023-05-11T04:52:19;100462.78;;;20.71;47.94
72359;BME280;60317;48.880;-0.862;2023-05-11T04:54:47;100461.63;;;20.74;47.91
72359;BME280;60317;48.880;-0.862;2023-05-11T04:57:13;100467.00;;;20.74;47.91
72359;BME280;60317;48.880;-0.862;2023-05-11T04:59:40;100465.31;;;20.73;48.05
72359;BME280;60317;48.880;-0.862;2023-05-11T05:02:06;100465.69;;;20.59;48.40
72359;BME280;60317;48.880;-0.862;2023-05-11T05:04:33;100468.78;;;20.64;48.17
72359;BME280;60317;48.880;-0.862;2023-05-11T05:07:01;100470.25;;;20.68;47.98
72359;BME280;60317;48.880;-0.862;2023-05-11T05:09:28;100475.34;;;20.71;48.17
72359;BME280;60317;48.880;-0.862;2023-05-11T05:11:56;100467.00;;;20.74;47.94
72359;BME280;60317;48.880;-0.862;2023-05-11T05:14:22;100475.78;;;20.76;48.01
72359;BME280;60317;48.880;-0.862;2023-05-11T05:16:49;100466.03;;;20.23;49.52
72359;BME280;60317;48.880;-0.862;2023-05-11T05:19:15;100465.34;;;19.89;51.38
72359;BME280;60317;48.880;-0.862;2023-05-11T05:21:42;100475.28;;;19.77;51.11
72359;BME280;60317;48.880;-0.862;2023-05-11T05:24:08;100479.66;;;19.78;51.41
72359;BME280;60317;48.880;-0.862;2023-05-11T05:26:35;100479.78;;;20.09;50.51
72359;BME280;60317;48.880;-0.862;2023-05-11T05:29:03;100485.97;;;20.31;49.79
72359;BME280;60317;48.880;-0.862;2023-05-11T05:31:29;100492.84;;;20.44;49.50
72359;BME280;60317;48.880;-0.862;2023-05-11T05:33:56;100492.59;;;20.47;49.23
72359;BME280;60317;48.880;-0.862;2023-05-11T05:36:22;100493.06;;;20.53;49.11
72359;BME280;60317;48.880;-0.862;2023-05-11T05:38:49;100506.22;;;20.56;48.96
72359;BME280;60317;48.880;-0.862;2023-05-11T05:41:15;100505.22;;;20.57;48.93
72359;BME280;60317;48.880;-0.862;2023-05-11T05:43:42;100519.53;;;20.57;48.89
72359;BME280;60317;48.880;-0.862;2023-05-11T05:46:10;100514.31;;;20.44;49.21
72359;BME280;60317;48.880;-0.862;2023-05-11T05:48:36;100520.44;;;20.46;49.05
72359;BME280;60317;48.880;-0.862;2023-05-11T05:51:03;100514.53;;;20.53;49.02
72359;BME280;60317;48.880;-0.862;2023-05-11T05:53:29;100515.25;;;20.55;48.80
72359;BME280;60317;48.880;-0.862;2023-05-11T05:55:56;100507.91;;;20.57;48.76
72359;BME280;60317;48.880;-0.862;2023-05-11T05:58:22;100509.47;;;20.59;48.68
72359;BME280;60317;48.880;-0.862;2023-05-11T06:00:49;100518.38;;;20.60;48.70
72359;BME280;60317;48.880;-0.862;2023-05-11T06:03:17;100514.75;;;20.61;48.60
72359;BME280;60317;48.880;-0.862;2023-05-11T06:05:43;100526.19;;;20.63;48.78
72359;BME280;60317;48.880;-0.862;2023-05-11T06:08:10;100522.31;;;20.56;48.76
72359;BME280;60317;48.880;-0.862;2023-05-11T06:10:37;100526.50;;;20.48;48.94
72359;BME280;60317;48.880;-0.862;2023-05-11T06:13:03;100528.81;;;20.53;48.78
72359;BME280;60317;48.880;-0.862;2023-05-11T06:15:30;100525.75;;;20.58;48.65
72359;BME280;60317;48.880;-0.862;2023-05-11T06:17:57;100525.47;;;20.61;48.60
72359;BME280;60317;48.880;-0.862;2023-05-11T06:20:24;100529.88;;;20.62;48.54
72359;BME280;60317;48.880;-0.862;2023-05-11T06:22:51;100529.19;;;20.48;48.70
72359;BME280;60317;48.880;-0.862;2023-05-11T06:25:18;100524.41;;;20.31;48.93
72359;BME280;60317;48.880;-0.862;2023-05-11T06:27:45;100521.47;;;20.13;49.04
72359;BME280;60317;48.880;-0.862;2023-05-11T06:30:12;100521.97;;;20.07;49.11
72359;BME280;60317;48.880;-0.862;2023-05-11T06:32:38;100524.47;;;19.99;49.32
72359;BME280;60317;48.880;-0.862;2023-05-11T06:35:05;100527.66;;;19.93;49.29
72359;BME280;60317;48.880;-0.862;2023-05-11T06:37:33;100529.38;;;19.94;49.10
72359;BME280;60317;48.880;-0.862;2023-05-11T06:40:00;100522.81;;;19.87;48.94
72359;BME280;60317;48.880;-0.862;2023-05-11T06:42:26;100526.84;;;19.81;48.99
72359;BME280;60317;48.880;-0.862;2023-05-11T06:44:53;100512.94;;;19.76;49.28
72359;BME280;60317;48.880;-0.862;2023-05-11T06:47:20;100518.47;;;19.74;49.35
72359;BME280;60317;48.880;-0.862;2023-05-11T06:49:46;100520.28;;;19.74;48.96
72359;BME280;60317;48.880;-0.862;2023-05-11T06:52:13;100524.66;;;19.75;49.34
72359;BME280;60317;48.880;-0.862;2023-05-11T06:54:41;100522.81;;;19.87;48.90
72359;BME280;60317;48.880;-0.862;2023-05-11T06:57:07;100514.03;;;19.85;49.09
72359;BME280;60317;48.880;-0.862;2023-05-11T06:59:34;100523.06;;;19.84;48.71
72359;BME280;60317;48.880;-0.862;2023-05-11T07:02:00;100529.03;;;19.87;48.41
72359;BME280;60317;48.880;-0.862;2023-05-11T07:04:27;100507.81;;;19.84;48.64
72359;BME280;60317;48.880;-0.862;2023-05-11T07:06:53;100510.84;;;19.91;48.63
72359;BME280;60317;48.880;-0.862;2023-05-11T07:09:20;100500.72;;;19.94;48.74
72359;BME280;60317;48.880;-0.862;2023-05-11T07:11:48;100499.13;;;19.92;48.86
72359;BME280;60317;48.880;-0.862;2023-05-11T07:14:14;100506.19;;;19.93;49.08
72359;BME280;60317;48.880;-0.862;2023-05-11T07:16:41;100514.56;;;19.99;48.97
72359;BME280;60317;48.880;-0.862;2023-05-11T07:19:07;100508.22;;;20.00;48.86
72359;BME280;60317;48.880;-0.862;2023-05-11T07:21:34;100518.25;;;19.98;48.87
72359;BME280;60317;48.880;-0.862;2023-05-11T07:24:01;100514.81;;;19.96;48.63
72359;BME280;60317;48.880;-0.862;2023-05-11T07:26:28;100522.88;;;19.96;48.66
72359;BME280;60317;48.880;-0.862;2023-05-11T07:28:56;100517.59;;;20.06;48.48
72359;BME280;60317;48.880;-0.862;2023-05-11T07:31:23;100519.69;;;20.02;48.84
72359;BME280;60317;48.880;-0.862;2023-05-11T07:33:50;100525.03;;;20.02;48.80
72359;BME280;60317;48.880;-0.862;2023-05-11T07:36:16;100525.03;;;20.02;48.99
72359;BME280;60317;48.880;-0.862;2023-05-11T07:38:43;100531.66;;;19.98;48.99
72359;BME280;60317;48.880;-0.862;2023-05-11T07:41:09;100535.19;;;19.99;48.95
72359;BME280;60317;48.880;-0.862;2023-05-11T07:43:38;100524.63;;;19.86;48.95
72359;BME280;60317;48.880;-0.862;2023-05-11T07:46:06;100529.88;;;19.88;48.75
72359;BME280;60317;48.880;-0.862;2023-05-11T07:48:32;100532.66;;;19.86;49.01
72359;BME280;60317;48.880;-0.862;2023-05-11T07:50:59;100537.53;;;19.92;48.96
72359;BME280;60317;48.880;-0.862;2023-05-11T07:53:25;100547.81;;;19.87;48.99
72359;BME280;60317;48.880;-0.862;2023-05-11T07:55:52;100541.06;;;19.93;48.95
72359;BME280;60317;48.880;-0.862;2023-05-11T07:58:18;100545.81;;;19.89;48.71
72359;BME280;60317;48.880;-0.862;2023-05-11T08:00:45;100537.13;;;19.97;49.03
72359;BME280;60317;48.880;-0.862;2023-05-11T08:03:13;100545.75;;;20.12;48.77
72359;BME280;60317;48.880;-0.862;2023-05-11T08:05:39;100536.06;;;20.20;48.82
72359;BME280;60317;48.880;-0.862;2023-05-11T08:08:06;100531.09;;;20.16;48.56
72359;BME280;60317;48.880;-0.862;2023-05-11T08:10:34;100529.56;;;20.02;49.03
72359;BME280;60317;48.880;-0.862;2023-05-11T08:13:01;100530.31;;;19.93;48.99
72359;BME280;60317;48.880;-0.862;2023-05-11T08:15:28;100531.06;;;19.95;49.00
72359;BME280;60317;48.880;-0.862;2023-05-11T08:17:54;100532.28;;;20.23;48.64
72359;BME280;60317;48.880;-0.862;2023-05-11T08:20:22;100530.88;;;20.49;48.00
72359;BME280;60317;48.880;-0.862;2023-05-11T08:22:49;100528.06;;;20.72;47.70
72359;BME280;60317;48.880;-0.862;2023-05-11T08:25:16;100532.25;;;20.86;47.52
72359;BME280;60317;48.880;-0.862;2023-05-11T08:27:43;100533.88;;;20.77;47.67
72359;BME280;60317;48.880;-0.862;2023-05-11T08:30:10;100536.81;;;20.64;47.94
72359;BME280;60317;48.880;-0.862;2023-05-11T08:32:37;100535.41;;;20.70;47.72
72359;BME280;60317;48.880;-0.862;2023-05-11T08:35:08;100537.44;;;20.57;48.32
72359;BME280;60317;48.880;-0.862;2023-05-11T08:37:37;100534.06;;;20.55;48.01
72359;BME280;60317;48.880;-0.862;2023-05-11T08:40:04;100540.13;;;20.57;47.70
72359;BME280;60317;48.880;-0.862;2023-05-11T08:42:32;100538.31;;;20.57;47.83
72359;BME280;60317;48.880;-0.862;2023-05-11T08:45:00;100539.72;;;20.40;48.13
72359;BME280;60317;48.880;-0.862;2023-05-11T08:47:27;100543.19;;;20.31;48.42
72359;BME280;60317;48.880;-0.862;2023-05-11T08:49:54;100541.25;;;20.33;48.31
72359;BME280;60317;48.880;-0.862;2023-05-11T08:52:21;100548.56;;;20.31;48.37
72359;BME280;60317;48.880;-0.862;2023-05-11T08:54:49;100540.41;;;20.33;48.26
72359;BME280;60317;48.880;-0.862;2023-05-11T08:57:16;100540.41;;;20.33;48.60
72359;BME280;60317;48.880;-0.862;2023-05-11T08:59:43;100540.91;;;20.26;48.70
72359;BME280;60317;48.880;-0.862;2023-05-11T09:02:13;100539.00;;;20.17;48.98
72359;BME280;60317;48.880;-0.862;2023-05-11T09:04:41;100544.25;;;20.19;48.95
72359;BME280;60317;48.880;-0.862;2023-05-11T09:07:08;100537.03;;;20.19;48.72
72359;BME280;60317;48.880;-0.862;2023-05-11T09:09:35;100535.94;;;20.22;48.61
72359;BME280;60317;48.880;-0.862;2023-05-11T09:12:04;100536.06;;;20.20;48.78
72359;BME280;60317;48.880;-0.862;2023-05-11T09:14:30;100530.59;;;20.11;48.83
72359;BME280;60317;48.880;-0.862;2023-05-11T09:16:57;100530.34;;;20.14;48.63
72359;BME280;60317;48.880;-0.862;2023-05-11T09:19:24;100512.56;;;20.13;48.51
72359;BME280;60317;48.880;-0.862;2023-05-11T09:21:51;100529.50;;;20.13;48.49
72359;BME280;60317;48.880;-0.862;2023-05-11T09:24:18;100515.84;;;20.16;48.42
72359;BME280;60317;48.880;-0.862;2023-05-11T09:26:45;100529.00;;;20.19;48.53
72359;BME280;60317;48.880;-0.862;2023-05-11T09:29:18;100512.50;;;20.24;49.19
72359;BME280;60317;48.880;-0.862;2023-05-11T09:31:46;100518.19;;;20.31;49.10
72359;BME280;60317;48.880;-0.862;2023-05-11T09:34:14;100518.91;;;20.33;49.26
72359;BME280;60317;48.880;-0.862;2023-05-11T09:36:42;100524.06;;;20.45;48.66
72359;BME280;60317;48.880;-0.862;2023-05-11T09:39:09;100521.06;;;20.60;48.27
72359;BME280;60317;48.880;-0.862;2023-05-11T09:41:41;100522.59;;;20.53;48.65
72359;BME280;60317;48.880;-0.862;2023-05-11T09:44:09;100525.91;;;20.66;48.38
72359;BME280;60317;48.880;-0.862;2023-05-11T09:46:38;100522.47;;;20.85;47.78
72359;BME280;60317;48.880;-0.862;2023-05-11T09:49:06;100522.50;;;20.94;47.50
72359;BME280;60317;48.880;-0.862;2023-05-11T09:51:33;100518.56;;;20.89;47.86
72359;BME280;60317;48.880;-0.862;2023-05-11T09:54:00;100522.50;;;20.94;47.76
72359;BME280;60317;48.880;-0.862;2023-05-11T09:56:45;100526.81;;;21.07;47.43
72359;BME280;60317;48.880;-0.862;2023-05-11T09:59:14;100533.09;;;21.17;47.17
72359;BME280;60317;48.880;-0.862;2023-05-11T10:01:43;100522.63;;;21.24;46.95
72359;BME280;60317;48.880;-0.862;2023-05-11T10:04:09;100524.06;;;21.28;46.97
72359;BME280;60317;48.880;-0.862;2023-05-11T10:06:50;100525.47;;;21.32;46.48
72359;BME280;60317;48.880;-0.862;2023-05-11T10:09:18;100519.19;;;21.12;47.71
72359;BME280;60317;48.880;-0.862;2023-05-11T10:11:48;100520.09;;;20.91;48.29
72359;BME280;60317;48.880;-0.862;2023-05-11T10:14:17;100515.09;;;20.77;48.33
72359;BME280;60317;48.880;-0.862;2023-05-11T10:16:46;100513.81;;;20.81;48.18
72359;BME280;60317;48.880;-0.862;2023-05-11T10:19:13;100518.81;;;20.86;47.95
72359;BME280;60317;48.880;-0.862;2023-05-11T10:21:41;100519.41;;;20.89;47.82
72359;BME280;60317;48.880;-0.862;2023-05-11T10:24:09;100525.34;;;20.93;47.69
72359;BME280;60317;48.880;-0.862;2023-05-11T10:26:36;100522.50;;;20.94;47.68
72359;BME280;60317;48.880;-0.862;2023-05-11T10:29:03;100533.25;;;20.94;47.55
72359;BME280;60317;48.880;-0.862;2023-05-11T10:31:30;100536.78;;;20.85;48.41
72359;BME280;60317;48.880;-0.862;2023-05-11T10:34:00;100544.97;;;20.63;48.94
72359;BME280;60317;48.880;-0.862;2023-05-11T10:36:26;100537.03;;;20.82;48.35
72359;BME280;60317;48.880;-0.862;2023-05-11T10:38:53;100538.09;;;21.01;47.82
72359;BME280;60317;48.880;-0.862;2023-05-11T10:41:28;100539.56;;;20.84;46.77
72359;BME280;60317;48.880;-0.862;2023-05-11T10:44:11;100536.09;;;20.93;47.31
72359;BME280;60317;48.880;-0.862;2023-05-11T10:46:58;100539.34;;;21.27;47.04
72359;BME280;60317;48.880;-0.862;2023-05-11T10:49:43;100534.03;;;21.47;46.37
72359;BME280;60317;48.880;-0.862;2023-05-11T10:52:29;100536.19;;;21.62;46.44
72359;BME280;60317;48.880;-0.862;2023-05-11T10:55:08;100541.84;;;21.69;46.46
72359;BME280;60317;48.880;-0.862;2023-05-11T10:57:52;100536.34;;;21.80;46.43
72359;BME280;60317;48.880;-0.862;2023-05-11T11:00:43;100531.84;;;21.90;46.09
72359;BME280;60317;48.880;-0.862;2023-05-11T11:03:20;100531.53;;;21.84;46.56
72359;BME280;60317;48.880;-0.862;2023-05-11T11:05:49;100519.75;;;21.75;46.71
72359;BME280;60317;48.880;-0.862;2023-05-11T11:08:16;100519.63;;;21.67;46.81
72359;BME280;60317;48.880;-0.862;2023-05-11T11:10:43;100521.13;;;21.40;45.98
72359;BME280;60317;48.880;-0.862;2023-05-11T11:13:12;100519.72;;;21.36;46.46
72359;BME280;60317;48.880;-0.862;2023-05-11T11:27:14;100507.38;;;21.34;46.19
72359;BME280;60317;48.880;-0.862;2023-05-11T11:32:38;100503.75;;;21.54;46.83
72359;BME280;60317;48.880;-0.862;2023-05-11T11:38:02;100507.88;;;21.49;46.97
72359;BME280;60317;48.880;-0.862;2023-05-11T11:40:34;100509.41;;;21.41;47.41
72359;BME280;60317;48.880;-0.862;2023-05-11T11:43:16;100501.88;;;21.35;47.30
72359;BME280;60317;48.880;-0.862;2023-05-11T11:45:50;100494.50;;;21.37;46.82
72359;BME280;60317;48.880;-0.862;2023-05-11T11:48:22;100493.25;;;21.51;46.16
72359;BME280;60317;48.880;-0.862;2023-05-11T11:50:49;100489.19;;;21.57;46.06
72359;BME280;60317;48.880;-0.862;2023-05-11T11:59:02;100487.63;;;21.64;46.30
72359;BME280;60317;48.880;-0.862;2023-05-11T12:01:34;100477.16;;;21.80;46.60
72359;BME280;60317;48.880;-0.862;2023-05-11T12:04:19;100474.59;;;21.88;46.98
72359;BME280;60317;48.880;-0.862;2023-05-11T12:06:55;100469.22;;;21.98;47.27
72359;BME280;60317;48.880;-0.862;2023-05-11T12:09:22;100464.97;;;21.96;46.60
72359;BME280;60317;48.880;-0.862;2023-05-11T12:11:48;100463.28;;;21.56;44.09
72359;BME280;60317;48.880;-0.862;2023-05-11T12:14:15;100464.41;;;21.43;45.61
72359;BME280;60317;48.880;-0.862;2023-05-11T12:16:42;100464.09;;;21.37;45.36
72359;BME280;60317;48.880;-0.862;2023-05-11T12:19:09;100475.66;;;21.28;45.44
72359;BME280;60317;48.880;-0.862;2023-05-11T12:21:37;100472.56;;;21.32;45.99
72359;BME280;60317;48.880;-0.862;2023-05-11T12:24:04;100470.84;;;21.21;44.26
72359;BME280;60317;48.880;-0.862;2023-05-11T12:26:31;100475.34;;;21.11;44.94
72359;BME280;60317;48.880;-0.862;2023-05-11T12:29:07;100470.50;;;21.05;45.43
72359;BME280;60317;48.880;-0.862;2023-05-11T12:31:35;100474.00;;;20.86;45.48
72359;BME280;60317;48.880;-0.862;2023-05-11T12:34:01;100470.09;;;20.69;45.89
72359;BME280;60317;48.880;-0.862;2023-05-11T12:36:28;100471.47;;;20.64;46.09
72359;BME280;60317;48.880;-0.862;2023-05-11T12:38:56;100476.84;;;20.64;46.29
72359;BME280;60317;48.880;-0.862;2023-05-11T12:41:23;100471.81;;;20.49;46.44
72359;BME280;60317;48.880;-0.862;2023-05-11T12:43:50;100476.25;;;20.51;46.83
72359;BME280;60317;48.880;-0.862;2023-05-11T12:46:18;100478.09;;;20.39;46.74
72359;BME280;60317;48.880;-0.862;2023-05-11T12:48:45;100475.31;;;20.40;47.21
72359;BME280;60317;48.880;-0.862;2023-05-11T12:51:12;100481.78;;;20.38;47.63
72359;BME280;60317;48.880;-0.862;2023-05-11T12:53:39;100474.91;;;20.24;47.41
72359;BME280;60317;48.880;-0.862;2023-05-11T12:56:07;100473.22;;;20.23;47.04
72359;BME280;60317;48.880;-0.862;2023-05-11T12:58:35;100470.88;;;20.09;46.78
72359;BME280;60317;48.880;-0.862;2023-05-11T13:01:03;100475.13;;;20.11;46.69
72359;BME280;60317;48.880;-0.862;2023-05-11T13:03:32;100473.81;;;20.06;47.10
72359;BME280;60317;48.880;-0.862;2023-05-11T13:06:04;100476.91;;;20.01;46.69
72359;BME280;60317;48.880;-0.862;2023-05-11T13:08:30;100482.25;;;20.01;46.72